createdAt,value
2022-08-16T00:00:46.690Z,15.86
2022-08-16T00:03:37.762Z,16.02
2022-08-16T00:06:24.070Z,15.99
2022-08-16T00:09:11.306Z,15.90
2022-08-16T00:12:00.418Z,15.82
2022-08-16T00:14:46.987Z,16.12
2022-08-16T00:17:56.371Z,15.94
2022-08-16T00:20:42.254Z,16.08
2022-08-16T00:23:34.878Z,15.92
2022-08-16T00:26:35.031Z,15.94
2022-08-16T00:29:25.448Z,15.93
2022-08-16T00:32:18.026Z,16.21
2022-08-16T00:35:05.756Z,16.30
2022-08-16T00:38:03.593Z,16.38
2022-08-16T00:41:11.362Z,16.33
2022-08-16T00:44:02.285Z,16.28
2022-08-16T00:47:05.925Z,16.23
2022-08-16T00:49:56.607Z,16.18
2022-08-16T00:52:50.142Z,16.01
2022-08-16T00:55:42.054Z,15.93
2022-08-16T00:58:32.282Z,15.88
2022-08-16T01:01:21.852Z,15.76
2022-08-16T01:04:29.429Z,15.61
2022-08-16T01:07:17.710Z,15.47
2022-08-16T01:10:05.752Z,15.49
2022-08-16T01:13:07.789Z,15.54
2022-08-16T01:16:02.987Z,15.35
2022-08-16T01:19:05.426Z,15.34
2022-08-16T01:22:47.861Z,15.20
2022-08-16T01:25:14.421Z,15.30
2022-08-16T01:28:07.077Z,15.31
2022-08-16T01:30:56.777Z,15.27
2022-08-16T01:33:44.875Z,14.97
2022-08-16T01:36:37.447Z,15.25
2022-08-16T01:39:23.820Z,15.39
2022-08-16T01:42:12.169Z,15.18
2022-08-16T01:44:59.675Z,15.12
2022-08-16T01:47:51.215Z,15.29
2022-08-16T01:51:09.052Z,15.23
2022-08-16T01:53:54.643Z,14.96
2022-08-16T01:56:50.149Z,14.83
2022-08-16T01:59:39.553Z,14.98
2022-08-16T02:02:28.328Z,15.04
2022-08-16T02:05:15.697Z,14.86
2022-08-16T02:08:04.583Z,14.75
2022-08-16T02:10:50.839Z,14.80
2022-08-16T02:13:41.891Z,14.44
2022-08-16T02:16:29.806Z,14.74
2022-08-16T02:19:20.581Z,14.77
2022-08-16T02:22:33.767Z,14.62
2022-08-16T02:25:17.511Z,14.73
2022-08-16T02:28:04.331Z,14.64
2022-08-16T02:30:52.774Z,14.69
2022-08-16T02:33:43.619Z,14.58
2022-08-16T02:36:49.615Z,14.59
2022-08-16T02:39:39.016Z,14.56
2022-08-16T02:42:28.395Z,14.65
2022-08-16T02:45:15.488Z,14.59
2022-08-16T02:48:29.049Z,14.38
2022-08-16T02:51:11.794Z,14.77
2022-08-16T02:54:02.681Z,14.53
2022-08-16T02:56:49.360Z,14.72
2022-08-16T02:59:39.700Z,14.66
2022-08-16T03:02:41.594Z,14.55
2022-08-16T03:05:31.626Z,14.56
2022-08-16T03:08:51.172Z,14.54
2022-08-16T03:11:28.610Z,14.42
2022-08-16T03:14:24.992Z,14.45
2022-08-16T03:17:16.418Z,14.46
2022-08-16T03:20:06.738Z,14.45
2022-08-16T03:22:59.579Z,14.42
2022-08-16T03:25:48.533Z,14.11
2022-08-16T03:28:35.777Z,14.36
2022-08-16T03:31:22.751Z,14.33
2022-08-16T03:34:09.933Z,14.21
2022-08-16T03:37:00.960Z,14.26
2022-08-16T03:39:48.042Z,14.13
2022-08-16T03:43:18.777Z,14.18
2022-08-16T03:45:52.662Z,14.31
2022-08-16T03:48:40.561Z,14.22
2022-08-16T03:51:34.491Z,14.40
2022-08-16T03:54:24.253Z,14.18
2022-08-16T03:57:15.678Z,14.39
2022-08-16T04:00:35.908Z,14.31
2022-08-16T04:03:22.458Z,14.16
2022-08-16T04:06:09.190Z,14.31
2022-08-16T04:08:56.441Z,14.12
2022-08-16T04:11:43.502Z,14.37
2022-08-16T04:14:32.727Z,14.39
2022-08-16T04:17:21.293Z,14.13
2022-08-16T04:20:23.841Z,14.22
2022-08-16T04:23:23.383Z,14.46
2022-08-16T04:26:16.697Z,14.44
2022-08-16T04:29:15.297Z,14.69
2022-08-16T04:32:05.033Z,14.64
2022-08-16T04:34:54.886Z,14.58
2022-08-16T04:37:44.414Z,14.74
2022-08-16T04:40:37.707Z,14.82
2022-08-16T04:43:25.174Z,14.74
2022-08-16T04:46:30.707Z,15.02
2022-08-16T04:49:22.932Z,14.96
2022-08-16T04:52:33.444Z,15.27
2022-08-16T04:55:19.736Z,15.42
2022-08-16T04:58:43.751Z,15.57
2022-08-16T05:01:18.265Z,15.63
2022-08-16T05:04:05.254Z,15.67
2022-08-16T05:07:09.961Z,15.45
2022-08-16T05:10:19.962Z,15.61
2022-08-16T05:13:15.392Z,15.97
2022-08-16T05:16:02.981Z,15.92
2022-08-16T05:18:56.886Z,16.15
2022-08-16T05:21:45.710Z,16.02
2022-08-16T05:24:32.702Z,16.21
2022-08-16T05:27:20.221Z,16.12
2022-08-16T05:30:34.971Z,16.49
2022-08-16T05:33:18.019Z,16.51
2022-08-16T05:36:14.245Z,16.35
2022-08-16T05:39:08.873Z,16.22
2022-08-16T05:41:56.661Z,16.22
2022-08-16T05:44:43.753Z,16.29
2022-08-16T05:47:32.149Z,16.30
2022-08-16T05:50:19.248Z,16.36
2022-08-16T05:53:07.538Z,16.52
2022-08-16T05:56:02.296Z,16.45
2022-08-16T05:58:51.625Z,17.04
2022-08-16T06:01:41.034Z,17.26
2022-08-16T06:04:35.600Z,17.32
2022-08-16T06:07:26.323Z,17.34
2022-08-16T06:10:32.471Z,17.34
2022-08-16T06:13:21.912Z,17.55
2022-08-16T06:16:09.513Z,17.73
2022-08-16T06:19:05.464Z,17.61
2022-08-16T06:21:55.058Z,18.24
2022-08-16T06:24:54.671Z,18.40
2022-08-16T06:27:57.673Z,18.59
2022-08-16T06:30:47.857Z,18.91
2022-08-16T06:33:41.869Z,19.38
2022-08-16T06:36:29.400Z,19.56
2022-08-16T06:39:34.393Z,19.92
2022-08-16T06:42:25.850Z,19.98
2022-08-16T06:45:30.840Z,20.43
2022-08-16T06:48:32.546Z,20.67
2022-08-16T06:51:20.155Z,20.93
2022-08-16T06:54:14.228Z,21.02
2022-08-16T06:57:01.690Z,21.10
2022-08-16T06:59:48.682Z,21.07
2022-08-16T07:02:51.607Z,20.89
2022-08-16T07:05:41.791Z,21.39
2022-08-16T07:08:35.389Z,21.39
2022-08-16T07:11:48.106Z,21.65
2022-08-16T07:14:33.953Z,21.90
2022-08-16T07:17:24.778Z,21.87
2022-08-16T07:20:29.998Z,22.15
2022-08-16T07:23:37.233Z,22.01
2022-08-16T07:26:27.445Z,22.06
2022-08-16T07:29:17.233Z,22.12
2022-08-16T07:32:05.020Z,21.91
2022-08-16T07:34:52.976Z,21.88
2022-08-16T07:37:40.193Z,21.69
2022-08-16T07:40:59.421Z,21.59
2022-08-16T07:43:47.542Z,21.75
2022-08-16T07:46:39.437Z,21.87
2022-08-16T07:49:49.867Z,21.75
2022-08-16T07:52:44.816Z,21.83
2022-08-16T07:55:45.920Z,21.83
2022-08-16T07:58:37.500Z,22.06
2022-08-16T08:01:30.154Z,22.23
2022-08-16T08:04:19.694Z,22.12
2022-08-16T08:07:08.966Z,22.20
2022-08-16T08:09:57.872Z,22.35
2022-08-16T08:12:44.768Z,22.19
2022-08-16T08:15:34.412Z,22.53
2022-08-16T08:18:29.678Z,22.35
2022-08-16T08:21:27.215Z,22.42
2022-08-16T08:24:15.492Z,22.51
2022-08-16T08:27:04.810Z,22.81
2022-08-16T08:30:09.306Z,22.55
2022-08-16T08:33:04.300Z,22.83
2022-08-16T08:36:01.409Z,22.95
2022-08-16T08:38:48.453Z,22.80
2022-08-16T08:41:38.802Z,22.93
2022-08-16T08:44:29.025Z,23.15
2022-08-16T08:47:21.010Z,23.11
2022-08-16T08:50:10.044Z,23.03
2022-08-16T08:52:56.925Z,22.98
2022-08-16T08:55:43.479Z,23.20
2022-08-16T08:58:34.388Z,23.37
2022-08-16T09:01:56.936Z,23.44
2022-08-16T09:05:14.817Z,23.61
2022-08-16T09:08:05.716Z,23.74
2022-08-16T09:11:03.930Z,23.97
2022-08-16T09:13:56.687Z,23.92
2022-08-16T09:17:03.869Z,24.02
2022-08-16T09:19:55.253Z,23.86
2022-08-16T09:22:44.015Z,24.08
2022-08-16T09:25:38.440Z,23.99
2022-08-16T09:29:13.713Z,24.07
2022-08-16T09:31:41.041Z,24.62
2022-08-16T09:34:29.490Z,24.80
2022-08-16T09:37:18.028Z,25.22
2022-08-16T09:40:32.918Z,25.57
2022-08-16T09:43:44.726Z,25.73
2022-08-16T09:46:44.521Z,25.62
2022-08-16T09:49:35.217Z,25.89
2022-08-16T09:52:23.774Z,25.98
2022-08-16T09:55:13.652Z,25.77
2022-08-16T09:58:00.188Z,25.97
2022-08-16T10:00:49.454Z,25.83
2022-08-16T10:03:36.196Z,25.62
2022-08-16T10:06:23.119Z,25.91
2022-08-16T10:09:10.564Z,25.73
2022-08-16T10:12:19.793Z,25.64
2022-08-16T10:15:08.726Z,25.66
2022-08-16T10:18:56.888Z,25.86
2022-08-16T10:21:15.711Z,25.83
2022-08-16T10:24:02.479Z,25.85
2022-08-16T10:27:17.620Z,25.90
2022-08-16T10:30:01.329Z,26.02
2022-08-16T10:32:53.715Z,25.99
2022-08-16T10:35:46.817Z,26.17
2022-08-16T10:38:36.659Z,26.28
2022-08-16T10:41:25.259Z,26.15
2022-08-16T10:44:14.211Z,26.14
2022-08-16T10:47:04.806Z,26.10
2022-08-16T10:49:51.617Z,26.57
2022-08-16T10:55:40.821Z,26.84
2022-08-16T10:58:34.633Z,26.82
2022-08-16T11:01:43.542Z,26.87
2022-08-16T11:05:05.595Z,26.86
2022-08-16T11:07:52.563Z,26.76
2022-08-16T11:11:05.397Z,26.67
2022-08-16T11:14:05.943Z,26.66
2022-08-16T11:17:10.484Z,26.85
2022-08-16T11:20:41.584Z,27.13
2022-08-16T11:23:04.730Z,26.90
2022-08-16T11:26:16.626Z,26.90
2022-08-16T11:29:15.259Z,26.57
2022-08-16T11:32:05.403Z,26.79
2022-08-16T11:35:13.604Z,26.52
2022-08-16T11:38:23.515Z,26.85
2022-08-16T11:41:10.734Z,26.78
2022-08-16T11:43:57.230Z,26.58
2022-08-16T11:46:46.778Z,26.45
2022-08-16T11:49:33.288Z,26.46
2022-08-16T11:52:21.741Z,26.26
2022-08-16T11:55:10.795Z,26.58
2022-08-16T11:57:57.526Z,26.45
2022-08-16T12:00:51.314Z,26.71
2022-08-16T12:03:38.628Z,26.81
2022-08-16T12:06:30.856Z,26.66
2022-08-16T12:09:20.547Z,27.03
2022-08-16T12:12:07.343Z,26.77
2022-08-16T12:15:00.063Z,26.78
2022-08-16T12:17:48.273Z,26.86
2022-08-16T12:20:41.159Z,27.18
2022-08-16T12:23:28.029Z,27.12
2022-08-16T12:26:18.371Z,26.78
2022-08-16T12:29:04.752Z,26.77
2022-08-16T12:32:01.224Z,27.01
2022-08-16T12:34:58.545Z,27.12
2022-08-16T12:37:48.142Z,27.36
2022-08-16T12:40:37.569Z,27.37
2022-08-16T12:43:31.054Z,27.31
2022-08-16T12:46:17.918Z,27.45
2022-08-16T12:49:06.350Z,27.30
2022-08-16T12:51:58.677Z,27.31
2022-08-16T12:54:46.330Z,27.08
2022-08-16T12:57:41.958Z,27.44
2022-08-16T13:00:33.535Z,27.77
2022-08-16T13:03:21.630Z,27.80
2022-08-16T13:06:08.612Z,28.24
2022-08-16T13:08:56.204Z,28.28
2022-08-16T13:11:55.434Z,28.56
2022-08-16T13:14:47.516Z,28.60
2022-08-16T13:17:38.990Z,28.88
2022-08-16T13:20:29.953Z,29.05
2022-08-16T13:23:17.192Z,29.08
2022-08-16T13:26:04.863Z,29.24
2022-08-16T13:28:52.718Z,29.21
2022-08-16T13:31:39.390Z,29.07
2022-08-16T13:34:26.013Z,29.22
2022-08-16T13:37:12.419Z,29.30
2022-08-16T13:40:00.896Z,29.36
2022-08-16T13:42:49.474Z,29.59
2022-08-16T13:45:36.410Z,29.51
2022-08-16T13:48:26.121Z,29.20
2022-08-16T13:51:17.031Z,29.39
2022-08-16T13:54:05.794Z,29.42
2022-08-16T13:56:52.603Z,29.04
2022-08-16T13:59:42.599Z,28.96
2022-08-16T14:02:28.926Z,29.11
2022-08-16T14:05:21.900Z,29.33
2022-08-16T14:08:08.435Z,29.38
2022-08-16T14:10:55.482Z,29.24
2022-08-16T14:13:42.872Z,29.47
2022-08-16T14:16:33.875Z,29.26
2022-08-16T14:19:22.512Z,29.20
2022-08-16T14:22:14.243Z,29.32
2022-08-16T14:25:03.176Z,29.42
2022-08-16T14:27:54.279Z,29.49
2022-08-16T14:30:41.071Z,29.48
2022-08-16T14:33:27.936Z,29.60
2022-08-16T14:36:29.561Z,29.27
2022-08-16T14:39:16.226Z,29.31
2022-08-16T14:42:10.636Z,29.71
2022-08-16T14:45:00.409Z,29.65
2022-08-16T14:47:49.760Z,29.67
2022-08-16T14:50:37.419Z,29.27
2022-08-16T14:53:24.810Z,29.10
2022-08-16T14:56:17.300Z,28.88
2022-08-16T14:59:19.411Z,28.80
2022-08-16T15:02:13.764Z,28.69
2022-08-16T15:05:15.161Z,28.44
2022-08-16T15:08:01.716Z,28.49
2022-08-16T15:10:49.683Z,28.46
2022-08-16T15:13:37.249Z,28.28
2022-08-16T15:16:29.129Z,28.00
2022-08-16T15:19:16.061Z,28.21
2022-08-16T15:22:04.385Z,28.26
2022-08-16T15:24:52.995Z,28.27
2022-08-16T15:27:42.199Z,28.13
2022-08-16T15:30:57.014Z,28.26
2022-08-16T15:33:43.383Z,28.02
2022-08-16T15:36:31.887Z,28.14
2022-08-16T15:39:37.126Z,28.01
2022-08-16T15:42:28.096Z,28.06
2022-08-16T15:45:36.822Z,28.13
2022-08-16T15:48:28.613Z,28.17
2022-08-16T15:51:16.520Z,28.27
2022-08-16T15:54:21.435Z,28.21
2022-08-16T15:57:12.054Z,28.16
2022-08-16T16:00:04.199Z,28.03
2022-08-16T16:03:08.637Z,28.05
2022-08-16T16:05:59.407Z,28.09
2022-08-16T16:08:47.357Z,27.91
2022-08-16T16:11:33.782Z,27.98
2022-08-16T16:14:22.358Z,27.99
2022-08-16T16:17:16.155Z,28.04
2022-08-16T16:20:05.154Z,28.05
2022-08-16T16:23:10.197Z,27.94
2022-08-16T16:25:58.658Z,27.69
2022-08-16T16:29:06.223Z,28.06
2022-08-16T16:31:59.222Z,27.78
2022-08-16T16:34:46.429Z,27.73
2022-08-16T16:37:33.360Z,27.76
2022-08-16T16:40:23.962Z,27.76
2022-08-16T16:43:18.751Z,27.81
2022-08-16T16:46:40.691Z,27.54
2022-08-16T16:49:26.416Z,27.90
2022-08-16T16:52:43.542Z,27.58
2022-08-16T16:55:22.487Z,27.78
2022-08-16T16:58:36.629Z,27.84
2022-08-16T17:01:57.080Z,27.78
2022-08-16T17:04:32.909Z,27.56
2022-08-16T17:07:24.039Z,27.67
2022-08-16T17:10:10.991Z,27.65
2022-08-16T17:13:04.965Z,27.66
2022-08-16T17:15:53.382Z,27.54
2022-08-16T17:19:17.131Z,27.45
2022-08-16T17:21:46.491Z,27.36
2022-08-16T17:24:39.800Z,27.47
2022-08-16T17:27:33.791Z,27.36
2022-08-16T17:30:29.511Z,27.14
2022-08-16T17:33:37.006Z,27.24
2022-08-16T17:36:36.305Z,27.12
2022-08-16T17:39:23.758Z,26.86
2022-08-16T17:42:15.782Z,27.06
2022-08-16T17:45:02.743Z,26.87
2022-08-16T17:47:49.880Z,26.92
2022-08-16T17:50:37.129Z,26.75
2022-08-16T17:53:23.896Z,26.73
2022-08-16T17:56:10.516Z,26.70
2022-08-16T17:58:57.093Z,26.48
2022-08-16T18:01:43.683Z,26.29
2022-08-16T18:04:48.315Z,26.29
2022-08-16T18:07:37.318Z,26.13
2022-08-16T18:10:33.380Z,26.26
2022-08-16T18:13:23.995Z,26.20
2022-08-16T18:16:11.306Z,25.98
2022-08-16T18:18:58.434Z,25.69
2022-08-16T18:22:03.358Z,25.60
2022-08-16T18:24:51.636Z,25.70
2022-08-16T18:27:38.563Z,25.58
2022-08-16T18:30:25.184Z,25.33
2022-08-16T18:33:12.437Z,25.30
2022-08-16T18:35:59.000Z,25.11
2022-08-16T18:38:45.206Z,24.92
2022-08-16T18:41:36.740Z,24.46
2022-08-16T18:44:29.221Z,24.42
2022-08-16T18:47:18.631Z,24.14
2022-08-16T18:50:05.622Z,23.96
2022-08-16T18:52:57.413Z,23.68
2022-08-16T18:55:45.651Z,23.45
2022-08-16T18:58:35.169Z,23.29
2022-08-16T19:01:21.510Z,23.06
2022-08-16T19:04:47.446Z,23.00
2022-08-16T19:07:14.066Z,22.90
2022-08-16T19:10:01.577Z,22.97
2022-08-16T19:12:48.489Z,22.73
2022-08-16T19:15:35.745Z,22.52
2022-08-16T19:18:22.567Z,22.57
2022-08-16T19:21:11.381Z,22.13
2022-08-16T19:24:01.195Z,22.21
2022-08-16T19:26:50.193Z,22.05
2022-08-16T19:29:36.774Z,21.96
2022-08-16T19:32:27.175Z,21.93
2022-08-16T19:35:14.811Z,21.85
2022-08-16T19:38:01.490Z,21.71
2022-08-16T19:40:47.989Z,21.63
2022-08-16T19:43:35.905Z,21.62
2022-08-16T19:46:22.204Z,21.36
2022-08-16T19:49:08.417Z,21.39
2022-08-16T19:51:55.147Z,21.35
2022-08-16T19:54:43.567Z,21.24
2022-08-16T19:57:30.535Z,21.08
2022-08-16T20:00:18.810Z,21.03
2022-08-16T20:03:12.595Z,20.48
2022-08-16T20:05:59.343Z,21.01
2022-08-16T20:08:45.538Z,20.78
2022-08-16T20:11:32.194Z,20.65
2022-08-16T20:14:24.633Z,20.58
2022-08-16T20:17:13.315Z,20.41
2022-08-16T20:19:59.613Z,20.44
2022-08-16T20:23:02.643Z,20.54
2022-08-16T20:25:50.009Z,20.29
2022-08-16T20:28:51.884Z,19.99
2022-08-16T20:31:40.663Z,20.09
2022-08-16T20:34:27.301Z,20.01
2022-08-16T20:37:16.174Z,20.08
2022-08-16T20:40:28.496Z,20.09
2022-08-16T20:43:13.263Z,20.00
2022-08-16T20:45:59.937Z,19.76
2022-08-16T20:48:46.177Z,19.65
2022-08-16T20:51:32.669Z,19.60
2022-08-16T20:54:33.413Z,19.57
2022-08-16T20:57:19.801Z,19.57
2022-08-16T21:00:08.646Z,19.20
2022-08-16T21:02:55.394Z,19.03
2022-08-16T21:05:42.754Z,19.10
2022-08-16T21:08:52.117Z,19.25
2022-08-16T21:11:37.263Z,19.08
2022-08-16T21:14:24.294Z,19.22
2022-08-16T21:17:12.972Z,19.06
2022-08-16T21:19:59.270Z,18.88
2022-08-16T21:22:57.377Z,19.06
2022-08-16T21:25:57.731Z,18.98
2022-08-16T21:28:45.502Z,18.85
2022-08-16T21:31:31.811Z,18.79
2022-08-16T21:34:18.077Z,18.72
2022-08-16T21:37:05.026Z,18.71
2022-08-16T21:39:51.199Z,18.60
2022-08-16T21:42:39.832Z,18.74
2022-08-16T21:45:26.389Z,18.64
2022-08-16T21:48:12.784Z,18.44
2022-08-16T21:50:59.551Z,18.44
2022-08-16T21:53:46.096Z,18.41
2022-08-16T21:56:32.455Z,18.06
2022-08-16T21:59:18.675Z,17.99
2022-08-16T22:02:05.896Z,18.02
2022-08-16T22:04:52.276Z,17.87
2022-08-16T22:07:38.590Z,18.04
2022-08-16T22:11:04.377Z,17.91
2022-08-16T22:13:32.196Z,17.86
2022-08-16T22:16:19.146Z,17.79
2022-08-16T22:19:05.743Z,17.88
2022-08-16T22:21:52.811Z,17.79
2022-08-16T22:24:39.751Z,17.78
2022-08-16T22:27:26.642Z,17.81
2022-08-16T22:30:13.923Z,17.75
2022-08-16T22:33:00.688Z,17.53
2022-08-16T22:35:53.352Z,17.64
2022-08-16T22:38:55.884Z,17.49
2022-08-16T22:41:45.428Z,17.63
2022-08-16T22:44:32.498Z,17.28
2022-08-16T22:47:19.005Z,17.37
2022-08-16T22:50:08.940Z,17.27
2022-08-16T22:52:57.307Z,17.36
2022-08-16T22:55:44.167Z,17.01
2022-08-16T22:58:36.513Z,17.05
2022-08-16T23:01:25.955Z,17.24
2022-08-16T23:04:12.466Z,17.19
2022-08-16T23:06:59.248Z,16.90
2022-08-16T23:09:45.559Z,16.86
2022-08-16T23:12:32.095Z,16.90
2022-08-16T23:15:23.106Z,17.13
2022-08-16T23:18:10.850Z,16.88
2022-08-16T23:21:02.577Z,16.93
2022-08-16T23:23:49.963Z,16.57
2022-08-16T23:26:45.868Z,16.99
2022-08-16T23:29:34.788Z,16.80
2022-08-16T23:32:21.319Z,16.74
2022-08-16T23:35:08.929Z,16.70
2022-08-16T23:37:55.999Z,16.78
2022-08-16T23:40:42.431Z,16.61
2022-08-16T23:43:31.937Z,16.72
2022-08-16T23:46:19.480Z,16.68
2022-08-16T23:49:58.510Z,16.61
2022-08-16T23:52:12.077Z,16.46
2022-08-16T23:55:03.697Z,16.33
2022-08-16T23:57:50.477Z,16.35
